Аэропорт: Основа. Харьков

ICAO: UKHH

METAR:
2020-08-13 11:00:00
UKHH 131100Z 32004MPS 280V360 9999 SCT038 20/10 Q1014 R25/0///81 NOSIG
METAR:
2020-08-13 05:03:00
TAF UKHH 130503Z 1306/1406 35005MPS 9999 SCT030 TEMPO 1306/1318 33007G12MPS SCT020CB